sensor_id;sensor_type;location;lat;lon;timestamp;pressure;altitude;pressure_sealevel;temperature;humidity
8641;BME280;4358;42.100;25.222;2023-11-19T00:00:30;99743.41;;;7.09;100.00
8641;BME280;4358;42.100;25.222;2023-11-19T00:02:57;99750.47;;;7.09;100.00
8641;BME280;4358;42.100;25.222;2023-11-19T00:05:24;99763.59;;;7.10;100.00
8641;BME280;4358;42.100;25.222;2023-11-19T00:07:51;99754.63;;;7.13;100.00
8641;BME280;4358;42.100;25.222;2023-11-19T00:10:19;99749.53;;;7.10;100.00
8641;BME280;4358;42.100;25.222;2023-11-19T00:12:48;99757.59;;;7.07;100.00
8641;BME280;4358;42.100;25.222;2023-11-19T00:15:16;99771.50;;;7.10;100.00
8641;BME280;4358;42.100;25.222;2023-11-19T00:17:47;99774.22;;;7.09;100.00
8641;BME280;4358;42.100;25.222;2023-11-19T00:20:15;99788.19;;;7.11;100.00
8641;BME280;4358;42.100;25.222;2023-11-19T00:22:42;99786.31;;;7.13;100.00
8641;BME280;4358;42.100;25.222;2023-11-19T00:25:09;99789.88;;;7.12;100.00
8641;BME280;4358;42.100;25.222;2023-11-19T00:27:36;99786.31;;;7.13;100.00
8641;BME280;4358;42.100;25.222;2023-11-19T00:30:04;99785.44;;;7.12;100.00
8641;BME280;4358;42.100;25.222;2023-11-19T00:32:32;99779.31;;;7.12;100.00
8641;BME280;4358;42.100;25.222;2023-11-19T00:35:00;99776.78;;;7.10;100.00
8641;BME280;4358;42.100;25.222;2023-11-19T00:37:28;99783.16;;;7.06;100.00
8641;BME280;4358;42.100;25.222;2023-11-19T00:39:55;99781.53;;;7.04;100.00
8641;BME280;4358;42.100;25.222;2023-11-19T00:42:22;99781.72;;;7.01;100.00
8641;BME280;4358;42.100;25.222;2023-11-19T00:44:49;99769.28;;;7.03;100.00
8641;BME280;4358;42.100;25.222;2023-11-19T00:47:16;99793.94;;;7.02;100.00
8641;BME280;4358;42.100;25.222;2023-11-19T00:49:46;99788.66;;;7.02;100.00
8641;BME280;4358;42.100;25.222;2023-11-19T00:52:15;99781.72;;;7.01;100.00
8641;BME280;4358;42.100;25.222;2023-11-19T00:54:42;99778.97;;;7.02;100.00
8641;BME280;4358;42.100;25.222;2023-11-19T00:57:09;99778.91;;;7.04;100.00
8641;BME280;4358;42.100;25.222;2023-11-19T00:59:36;99780.59;;;7.05;100.00
8641;BME280;4358;42.100;25.222;2023-11-19T01:02:03;99777.78;;;7.08;100.00
8641;BME280;4358;42.100;25.222;2023-11-19T01:04:33;99777.63;;;7.11;100.00
8641;BME280;4358;42.100;25.222;2023-11-19T01:07:01;99772.84;;;7.17;100.00
8641;BME280;4358;42.100;25.222;2023-11-19T01:09:30;99791.25;;;7.19;100.00
8641;BME280;4358;42.100;25.222;2023-11-19T01:12:00;99776.28;;;7.19;100.00
8641;BME280;4358;42.100;25.222;2023-11-19T01:14:28;99804.53;;;7.17;100.00
8641;BME280;4358;42.100;25.222;2023-11-19T01:16:55;99797.56;;;7.16;100.00
8641;BME280;4358;42.100;25.222;2023-11-19T01:19:23;99809.81;;;7.17;100.00
8641;BME280;4358;42.100;25.222;2023-11-19T01:21:50;99800.09;;;7.18;100.00
8641;BME280;4358;42.100;25.222;2023-11-19T01:24:17;99808.97;;;7.17;100.00
8641;BME280;4358;42.100;25.222;2023-11-19T01:26:46;99807.09;;;7.19;100.00
8641;BME280;4358;42.100;25.222;2023-11-19T01:29:13;99808.97;;;7.17;100.00
8641;BME280;4358;42.100;25.222;2023-11-19T01:31:40;99814.25;;;7.17;100.00
8641;BME280;4358;42.100;25.222;2023-11-19T01:34:07;99813.47;;;7.15;100.00
8641;BME280;4358;42.100;25.222;2023-11-19T01:36:34;99824.81;;;7.17;100.00
8641;BME280;4358;42.100;25.222;2023-11-19T01:39:01;99822.31;;;7.14;100.00
8641;BME280;4358;42.100;25.222;2023-11-19T01:41:29;99822.31;;;7.14;100.00
8641;BME280;4358;42.100;25.222;2023-11-19T01:43:58;99796.00;;;7.12;100.00
8641;BME280;4358;42.100;25.222;2023-11-19T01:46:25;99797.03;;;7.10;100.00
8641;BME280;4358;42.100;25.222;2023-11-19T01:48:53;99790.22;;;7.06;100.00
8641;BME280;4358;42.100;25.222;2023-11-19T01:51:21;99781.34;;;7.07;100.00
8641;BME280;4358;42.100;25.222;2023-11-19T01:53:49;99784.16;;;7.04;100.00
8641;BME280;4358;42.100;25.222;2023-11-19T01:56:16;99780.94;;;6.99;100.00
8641;BME280;4358;42.100;25.222;2023-11-19T01:58:43;99784.56;;;6.96;100.00
8641;BME280;4358;42.100;25.222;2023-11-19T02:01:14;99813.69;;;6.95;100.00
8641;BME280;4358;42.100;25.222;2023-11-19T02:03:41;99775.06;;;6.94;100.00
8641;BME280;4358;42.100;25.222;2023-11-19T02:06:08;99744.41;;;6.91;100.00
8641;BME280;4358;42.100;25.222;2023-11-19T02:08:36;99750.53;;;6.92;100.00
8641;BME280;4358;42.100;25.222;2023-11-19T02:11:03;99770.09;;;6.88;100.00
8641;BME280;4358;42.100;25.222;2023-11-19T02:13:32;99756.13;;;6.86;100.00
8641;BME280;4358;42.100;25.222;2023-11-19T02:16:02;99748.47;;;6.81;100.00
8641;BME280;4358;42.100;25.222;2023-11-19T02:18:30;99742.53;;;6.77;100.00
8641;BME280;4358;42.100;25.222;2023-11-19T02:20:59;99735.00;;;6.70;100.00
8641;BME280;4358;42.100;25.222;2023-11-19T02:23:27;99768.91;;;6.77;100.00
8641;BME280;4358;42.100;25.222;2023-11-19T02:26:12;99746.09;;;6.76;100.00
8641;BME280;4358;42.100;25.222;2023-11-19T02:28:42;99756.97;;;6.70;100.00
8641;BME280;4358;42.100;25.222;2023-11-19T02:31:09;99764.00;;;6.70;100.00
8641;BME280;4358;42.100;25.222;2023-11-19T02:33:37;99748.28;;;6.68;100.00
8641;BME280;4358;42.100;25.222;2023-11-19T02:36:05;99767.06;;;6.62;100.00
8641;BME280;4358;42.100;25.222;2023-11-19T02:38:32;99774.13;;;6.62;100.00
8641;BME280;4358;42.100;25.222;2023-11-19T02:41:02;99772.28;;;6.64;100.00
8641;BME280;4358;42.100;25.222;2023-11-19T02:43:30;99782.81;;;6.64;100.00
8641;BME280;4358;42.100;25.222;2023-11-19T02:46:01;99786.31;;;6.64;100.00
8641;BME280;4358;42.100;25.222;2023-11-19T02:48:28;99793.38;;;6.64;100.00
8641;BME280;4358;42.100;25.222;2023-11-19T02:50:56;99796.09;;;6.62;100.00
8641;BME280;4358;42.100;25.222;2023-11-19T02:53:24;99807.56;;;6.61;100.00
8641;BME280;4358;42.100;25.222;2023-11-19T02:55:53;99800.56;;;6.60;100.00
8641;BME280;4358;42.100;25.222;2023-11-19T02:58:26;99804.91;;;6.61;100.00
8641;BME280;4358;42.100;25.222;2023-11-19T03:00:54;99811.91;;;6.62;100.00
8641;BME280;4358;42.100;25.222;2023-11-19T03:03:25;99818.72;;;6.66;100.00
8641;BME280;4358;42.100;25.222;2023-11-19T03:05:56;99821.34;;;6.66;100.00
8641;BME280;4358;42.100;25.222;2023-11-19T03:08:23;99824.91;;;6.65;100.00
8641;BME280;4358;42.100;25.222;2023-11-19T03:10:50;99833.00;;;6.62;100.00
8641;BME280;4358;42.100;25.222;2023-11-19T03:13:17;99827.72;;;6.62;100.00
8641;BME280;4358;42.100;25.222;2023-11-19T03:15:44;99835.63;;;6.62;100.00
8641;BME280;4358;42.100;25.222;2023-11-19T03:18:11;99820.59;;;6.64;100.00
8641;BME280;4358;42.100;25.222;2023-11-19T03:20:39;99825.09;;;6.62;100.00
8641;BME280;4358;42.100;25.222;2023-11-19T03:23:07;99822.28;;;6.65;100.00
8641;BME280;4358;42.100;25.222;2023-11-19T03:25:34;99819.63;;;6.65;100.00
8641;BME280;4358;42.100;25.222;2023-11-19T03:28:02;99817.50;;;6.56;100.00
8641;BME280;4358;42.100;25.222;2023-11-19T03:30:29;99824.16;;;6.63;100.00
8641;BME280;4358;42.100;25.222;2023-11-19T03:32:57;99816.06;;;6.66;100.00
8641;BME280;4358;42.100;25.222;2023-11-19T03:35:24;99846.78;;;6.67;100.00
8641;BME280;4358;42.100;25.222;2023-11-19T03:37:52;99843.56;;;6.62;100.00
8641;BME280;4358;42.100;25.222;2023-11-19T03:40:19;99849.00;;;6.59;100.00
8641;BME280;4358;42.100;25.222;2023-11-19T03:42:46;99848.81;;;6.62;100.00
8641;BME280;4358;42.100;25.222;2023-11-19T03:45:13;99832.31;;;6.59;100.00
8641;BME280;4358;42.100;25.222;2023-11-19T03:47:41;99844.66;;;6.58;100.00
8641;BME280;4358;42.100;25.222;2023-11-19T03:50:08;99836.72;;;6.58;100.00
8641;BME280;4358;42.100;25.222;2023-11-19T03:52:35;99836.81;;;6.57;100.00
8641;BME280;4358;42.100;25.222;2023-11-19T03:55:05;99836.13;;;6.53;100.00
8641;BME280;4358;42.100;25.222;2023-11-19T03:57:34;99816.81;;;6.53;100.00
8641;BME280;4358;42.100;25.222;2023-11-19T04:00:01;99828.34;;;6.50;100.00
8641;BME280;4358;42.100;25.222;2023-11-19T04:02:33;99825.97;;;6.46;100.00
8641;BME280;4358;42.100;25.222;2023-11-19T04:05:00;99836.44;;;6.47;100.00
8641;BME280;4358;42.100;25.222;2023-11-19T04:07:28;99820.00;;;6.42;100.00
8641;BME280;4358;42.100;25.222;2023-11-19T04:09:55;99820.13;;;6.39;100.00
8641;BME280;4358;42.100;25.222;2023-11-19T04:12:23;99821.00;;;6.39;100.00
8641;BME280;4358;42.100;25.222;2023-11-19T04:14:50;99832.56;;;6.37;100.00
8641;BME280;4358;42.100;25.222;2023-11-19T04:17:17;99845.81;;;6.35;100.00
8641;BME280;4358;42.100;25.222;2023-11-19T04:19:44;99848.69;;;6.31;100.00
8641;BME280;4358;42.100;25.222;2023-11-19T04:22:11;99846.84;;;6.33;100.00
8641;BME280;4358;42.100;25.222;2023-11-19T04:24:38;99852.16;;;6.31;100.00
8641;BME280;4358;42.100;25.222;2023-11-19T04:27:06;99859.06;;;6.34;100.00
8641;BME280;4358;42.100;25.222;2023-11-19T04:29:34;99855.34;;;6.38;100.00
8641;BME280;4358;42.100;25.222;2023-11-19T04:32:02;99860.63;;;6.38;100.00
8641;BME280;4358;42.100;25.222;2023-11-19T04:34:31;99858.75;;;6.40;100.00
8641;BME280;4358;42.100;25.222;2023-11-19T04:36:58;99864.03;;;6.40;100.00
8641;BME280;4358;42.100;25.222;2023-11-19T04:39:27;99879.84;;;6.40;100.00
8641;BME280;4358;42.100;25.222;2023-11-19T04:41:54;99881.56;;;6.41;100.00
8641;BME280;4358;42.100;25.222;2023-11-19T04:44:21;99880.56;;;6.44;100.00
8641;BME280;4358;42.100;25.222;2023-11-19T04:46:49;99888.38;;;6.45;100.00
8641;BME280;4358;42.100;25.222;2023-11-19T04:49:16;99893.66;;;6.45;100.00
8641;BME280;4358;42.100;25.222;2023-11-19T04:51:45;99900.69;;;6.45;100.00
8641;BME280;4358;42.100;25.222;2023-11-19T04:54:12;99895.53;;;6.43;100.00
8641;BME280;4358;42.100;25.222;2023-11-19T04:56:40;99913.97;;;6.43;100.00
8641;BME280;4358;42.100;25.222;2023-11-19T04:59:11;99892.94;;;6.42;100.00
8641;BME280;4358;42.100;25.222;2023-11-19T05:01:38;99906.50;;;6.34;100.00
8641;BME280;4358;42.100;25.222;2023-11-19T05:04:07;99905.44;;;6.38;100.00
8641;BME280;4358;42.100;25.222;2023-11-19T05:06:34;99921.31;;;6.36;100.00
8641;BME280;4358;42.100;25.222;2023-11-19T05:09:01;99926.72;;;6.33;100.00
8641;BME280;4358;42.100;25.222;2023-11-19T05:11:30;99931.19;;;6.33;100.00
8641;BME280;4358;42.100;25.222;2023-11-19T05:13:56;99931.19;;;6.33;100.00
8641;BME280;4358;42.100;25.222;2023-11-19T05:16:23;99927.91;;;6.28;100.00
8641;BME280;4358;42.100;25.222;2023-11-19T05:18:50;99931.47;;;6.27;100.00
8641;BME280;4358;42.100;25.222;2023-11-19T05:21:19;99957.97;;;6.24;100.00
8641;BME280;4358;42.100;25.222;2023-11-19T05:23:45;99950.84;;;6.26;100.00
8641;BME280;4358;42.100;25.222;2023-11-19T05:26:17;99958.75;;;6.26;100.00
8641;BME280;4358;42.100;25.222;2023-11-19T05:28:45;99950.97;;;6.23;100.00
8641;BME280;4358;42.100;25.222;2023-11-19T05:31:12;99958.97;;;6.21;100.00
8641;BME280;4358;42.100;25.222;2023-11-19T05:33:38;99966.94;;;6.20;100.00
8641;BME280;4358;42.100;25.222;2023-11-19T05:36:06;99966.03;;;6.21;100.00
8641;BME280;4358;42.100;25.222;2023-11-19T05:38:35;99968.50;;;6.24;100.00
8641;BME280;4358;42.100;25.222;2023-11-19T05:41:02;99971.88;;;6.27;100.00
8641;BME280;4358;42.100;25.222;2023-11-19T05:43:30;99948.34;;;6.23;100.00
8641;BME280;4358;42.100;25.222;2023-11-19T05:45:57;99954.09;;;6.31;100.00
8641;BME280;4358;42.100;25.222;2023-11-19T05:48:26;99960.00;;;6.36;100.00
8641;BME280;4358;42.100;25.222;2023-11-19T05:50:53;99957.22;;;6.39;100.00
8641;BME280;4358;42.100;25.222;2023-11-19T05:53:20;99948.38;;;6.40;100.00
8641;BME280;4358;42.100;25.222;2023-11-19T05:55:49;99960.63;;;6.41;100.00
8641;BME280;4358;42.100;25.222;2023-11-19T05:58:23;99928.84;;;6.44;100.00
8641;BME280;4358;42.100;25.222;2023-11-19T06:00:51;99929.69;;;6.45;100.00
8641;BME280;4358;42.100;25.222;2023-11-19T06:03:18;99929.63;;;6.46;100.00
8641;BME280;4358;42.100;25.222;2023-11-19T06:05:45;99933.97;;;6.47;100.00
8641;BME280;4358;42.100;25.222;2023-11-19T06:08:12;99946.06;;;6.51;100.00
8641;BME280;4358;42.100;25.222;2023-11-19T06:10:40;99945.78;;;6.57;100.00
8641;BME280;4358;42.100;25.222;2023-11-19T06:13:08;99988.75;;;6.59;100.00
8641;BME280;4358;42.100;25.222;2023-11-19T06:15:37;99976.31;;;6.61;100.00
8641;BME280;4358;42.100;25.222;2023-11-19T06:18:04;99967.41;;;6.64;100.00
8641;BME280;4358;42.100;25.222;2023-11-19T06:20:31;99964.69;;;6.65;100.00
8641;BME280;4358;42.100;25.222;2023-11-19T06:22:58;99969.81;;;6.68;100.00
8641;BME280;4358;42.100;25.222;2023-11-19T06:25:24;99975.72;;;6.73;100.00
8641;BME280;4358;42.100;25.222;2023-11-19T06:27:51;99982.09;;;6.69;100.00
8641;BME280;4358;42.100;25.222;2023-11-19T06:30:20;99961.19;;;6.65;100.00
8641;BME280;4358;42.100;25.222;2023-11-19T06:32:47;99981.66;;;6.60;100.00
8641;BME280;4358;42.100;25.222;2023-11-19T06:35:14;99976.63;;;6.55;100.00
8641;BME280;4358;42.100;25.222;2023-11-19T06:37:41;100011.75;;;6.56;100.00
8641;BME280;4358;42.100;25.222;2023-11-19T06:40:09;100005.91;;;6.49;100.00
8641;BME280;4358;42.100;25.222;2023-11-19T06:42:37;100014.00;;;6.46;100.00
8641;BME280;4358;42.100;25.222;2023-11-19T06:45:05;100018.34;;;6.47;100.00
8641;BME280;4358;42.100;25.222;2023-11-19T06:47:34;100007.94;;;6.44;100.00
8641;BME280;4358;42.100;25.222;2023-11-19T06:50:01;100019.25;;;6.46;100.00
8641;BME280;4358;42.100;25.222;2023-11-19T06:52:31;100023.09;;;6.58;100.00
8641;BME280;4358;42.100;25.222;2023-11-19T06:54:57;100015.34;;;6.72;100.00
8641;BME280;4358;42.100;25.222;2023-11-19T06:57:24;100018.09;;;6.88;100.00
8641;BME280;4358;42.100;25.222;2023-11-19T06:59:51;100005.03;;;7.02;100.00
8641;BME280;4358;42.100;25.222;2023-11-19T07:02:18;100015.00;;;7.14;100.00
8641;BME280;4358;42.100;25.222;2023-11-19T07:04:46;100013.50;;;7.26;100.00
8641;BME280;4358;42.100;25.222;2023-11-19T07:07:13;100001.47;;;7.37;100.00
8641;BME280;4358;42.100;25.222;2023-11-19T07:09:41;100007.19;;;7.45;100.00
8641;BME280;4358;42.100;25.222;2023-11-19T07:12:08;99989.06;;;7.55;100.00
8641;BME280;4358;42.100;25.222;2023-11-19T07:14:35;100013.53;;;7.58;100.00
8641;BME280;4358;42.100;25.222;2023-11-19T07:17:02;100004.59;;;7.61;100.00
8641;BME280;4358;42.100;25.222;2023-11-19T07:19:29;100031.22;;;7.74;100.00
8641;BME280;4358;42.100;25.222;2023-11-19T07:21:57;100010.59;;;7.80;100.00
8641;BME280;4358;42.100;25.222;2023-11-19T07:24:24;100015.28;;;7.91;100.00
8641;BME280;4358;42.100;25.222;2023-11-19T07:26:53;100032.59;;;7.96;100.00
8641;BME280;4358;42.100;25.222;2023-11-19T07:29:20;100010.47;;;7.99;100.00
8641;BME280;4358;42.100;25.222;2023-11-19T07:31:48;100024.41;;;8.01;100.00
8641;BME280;4358;42.100;25.222;2023-11-19T07:34:16;100039.19;;;8.05;100.00
8641;BME280;4358;42.100;25.222;2023-11-19T07:36:43;100026.00;;;8.05;100.00
8641;BME280;4358;42.100;25.222;2023-11-19T07:39:11;100019.25;;;8.15;100.00
8641;BME280;4358;42.100;25.222;2023-11-19T07:41:38;100048.94;;;8.20;100.00
8641;BME280;4358;42.100;25.222;2023-11-19T07:44:05;100036.56;;;8.21;100.00
8641;BME280;4358;42.100;25.222;2023-11-19T07:46:33;100064.34;;;8.28;100.00
8641;BME280;4358;42.100;25.222;2023-11-19T07:48:59;100075.69;;;8.31;100.00
8641;BME280;4358;42.100;25.222;2023-11-19T07:51:28;100059.28;;;8.40;100.00
8641;BME280;4358;42.100;25.222;2023-11-19T07:53:55;100058.97;;;8.46;99.82
8641;BME280;4358;42.100;25.222;2023-11-19T07:56:23;100079.94;;;8.49;99.77
8641;BME280;4358;42.100;25.222;2023-11-19T07:58:50;100081.13;;;8.60;99.39
8641;BME280;4358;42.100;25.222;2023-11-19T08:01:17;100088.72;;;8.66;98.84
8641;BME280;4358;42.100;25.222;2023-11-19T08:03:44;100068.69;;;8.62;97.99
8641;BME280;4358;42.100;25.222;2023-11-19T08:06:11;100083.00;;;8.73;98.29
8641;BME280;4358;42.100;25.222;2023-11-19T08:08:38;100091.94;;;8.86;97.82
8641;BME280;4358;42.100;25.222;2023-11-19T08:11:05;100074.28;;;8.87;98.05
8641;BME280;4358;42.100;25.222;2023-11-19T08:13:34;100067.59;;;8.96;97.89
8641;BME280;4358;42.100;25.222;2023-11-19T08:16:01;100067.72;;;8.94;97.69
8641;BME280;4358;42.100;25.222;2023-11-19T08:18:27;100068.97;;;9.03;97.57
8641;BME280;4358;42.100;25.222;2023-11-19T08:20:54;100078.34;;;9.08;97.34
8641;BME280;4358;42.100;25.222;2023-11-19T08:23:23;100080.44;;;9.17;96.36
8641;BME280;4358;42.100;25.222;2023-11-19T08:25:51;100096.53;;;9.14;95.21
8641;BME280;4358;42.100;25.222;2023-11-19T08:28:18;100093.19;;;9.11;95.53
8641;BME280;4358;42.100;25.222;2023-11-19T08:30:47;100081.94;;;9.07;95.74
8641;BME280;4358;42.100;25.222;2023-11-19T08:33:13;100082.03;;;8.90;96.09
8641;BME280;4358;42.100;25.222;2023-11-19T08:35:41;100103.34;;;9.18;95.76
8641;BME280;4358;42.100;25.222;2023-11-19T08:38:08;100096.19;;;9.20;96.02
8641;BME280;4358;42.100;25.222;2023-11-19T08:40:34;100091.97;;;9.16;95.70
8641;BME280;4358;42.100;25.222;2023-11-19T08:43:01;100114.72;;;9.20;96.05
8641;BME280;4358;42.100;25.222;2023-11-19T08:45:30;100124.44;;;9.20;95.42
8641;BME280;4358;42.100;25.222;2023-11-19T08:47:58;100132.47;;;9.18;95.91
8641;BME280;4358;42.100;25.222;2023-11-19T08:50:25;100128.53;;;9.25;95.31
8641;BME280;4358;42.100;25.222;2023-11-19T08:52:52;100122.88;;;9.31;95.01
8641;BME280;4358;42.100;25.222;2023-11-19T08:55:19;100120.63;;;9.40;95.10
8641;BME280;4358;42.100;25.222;2023-11-19T08:57:46;100107.88;;;9.46;94.65
8641;BME280;4358;42.100;25.222;2023-11-19T09:00:13;100115.38;;;9.54;94.48
8641;BME280;4358;42.100;25.222;2023-11-19T09:02:41;100122.56;;;9.52;93.91
8641;BME280;4358;42.100;25.222;2023-11-19T09:05:09;100129.97;;;9.61;94.38
8641;BME280;4358;42.100;25.222;2023-11-19T09:07:37;100117.50;;;9.63;94.66
8641;BME280;4358;42.100;25.222;2023-11-19T09:10:05;100124.09;;;9.70;94.31
8641;BME280;4358;42.100;25.222;2023-11-19T09:12:34;100132.06;;;9.70;94.19
8641;BME280;4358;42.100;25.222;2023-11-19T09:15:01;100119.28;;;9.62;94.19
8641;BME280;4358;42.100;25.222;2023-11-19T09:17:28;100159.47;;;9.55;94.36
8641;BME280;4358;42.100;25.222;2023-11-19T09:19:55;100130.81;;;9.61;94.58
8641;BME280;4358;42.100;25.222;2023-11-19T09:22:23;100117.09;;;9.69;94.35
8641;BME280;4358;42.100;25.222;2023-11-19T09:24:50;100106.63;;;9.82;93.29
8641;BME280;4358;42.100;25.222;2023-11-19T09:27:17;100130.06;;;9.73;93.95
8641;BME280;4358;42.100;25.222;2023-11-19T09:29:43;100119.22;;;9.78;93.48
8641;BME280;4358;42.100;25.222;2023-11-19T09:32:12;100130.97;;;9.88;93.41
8641;BME280;4358;42.100;25.222;2023-11-19T09:34:39;100119.78;;;9.83;93.20
8641;BME280;4358;42.100;25.222;2023-11-19T09:37:05;100102.75;;;9.73;93.54
8641;BME280;4358;42.100;25.222;2023-11-19T09:39:34;100116.38;;;9.81;93.12
8641;BME280;4358;42.100;25.222;2023-11-19T09:42:01;100100.75;;;9.76;93.19
8641;BME280;4358;42.100;25.222;2023-11-19T09:44:28;100112.94;;;9.79;92.89
8641;BME280;4358;42.100;25.222;2023-11-19T09:46:58;100117.22;;;9.82;92.51
8641;BME280;4358;42.100;25.222;2023-11-19T09:49:26;100107.00;;;9.75;92.74
8641;BME280;4358;42.100;25.222;2023-11-19T09:51:54;100126.47;;;9.74;92.92
8641;BME280;4358;42.100;25.222;2023-11-19T09:54:21;100108.06;;;9.87;92.90
8641;BME280;4358;42.100;25.222;2023-11-19T09:56:49;100119.31;;;10.05;92.38
8641;BME280;4358;42.100;25.222;2023-11-19T09:59:16;100112.13;;;10.07;91.72
8641;BME280;4358;42.100;25.222;2023-11-19T10:01:45;100106.75;;;10.08;91.36
8641;BME280;4358;42.100;25.222;2023-11-19T10:04:15;100113.72;;;9.95;91.17
8641;BME280;4358;42.100;25.222;2023-11-19T10:06:43;100118.66;;;10.01;91.51
8641;BME280;4358;42.100;25.222;2023-11-19T10:09:12;100117.25;;;10.10;90.65
8641;BME280;4358;42.100;25.222;2023-11-19T10:11:40;100118.66;;;10.01;90.93
8641;BME280;4358;42.100;25.222;2023-11-19T10:14:09;100101.59;;;10.05;91.90
8641;BME280;4358;42.100;25.222;2023-11-19T10:16:38;100113.94;;;10.20;90.87
8641;BME280;4358;42.100;25.222;2023-11-19T10:19:05;100119.25;;;10.20;90.06
8641;BME280;4358;42.100;25.222;2023-11-19T10:21:32;100116.00;;;10.15;90.80
8641;BME280;4358;42.100;25.222;2023-11-19T10:24:00;100111.09;;;10.09;90.49
8641;BME280;4358;42.100;25.222;2023-11-19T10:26:27;100126.59;;;10.15;90.33
8641;BME280;4358;42.100;25.222;2023-11-19T10:28:55;100108.66;;;10.20;90.52
8641;BME280;4358;42.100;25.222;2023-11-19T10:31:24;100098.88;;;10.21;90.16
8641;BME280;4358;42.100;25.222;2023-11-19T10:33:52;100125.53;;;10.19;89.95
8641;BME280;4358;42.100;25.222;2023-11-19T10:36:19;100094.06;;;9.99;90.18
8641;BME280;4358;42.100;25.222;2023-11-19T10:38:53;100109.97;;;9.99;90.24
8641;BME280;4358;42.100;25.222;2023-11-19T10:41:27;100110.72;;;10.01;90.46
8641;BME280;4358;42.100;25.222;2023-11-19T10:43:54;100104.81;;;10.10;90.50
8641;BME280;4358;42.100;25.222;2023-11-19T10:46:21;100100.38;;;10.11;90.36
8641;BME280;4358;42.100;25.222;2023-11-19T10:48:50;100111.91;;;10.26;89.82
8641;BME280;4358;42.100;25.222;2023-11-19T10:51:18;100111.50;;;10.17;89.71
8641;BME280;4358;42.100;25.222;2023-11-19T10:53:49;100116.06;;;10.30;89.40
8641;BME280;4358;42.100;25.222;2023-11-19T10:56:20;100090.47;;;10.29;89.50
8641;BME280;4358;42.100;25.222;2023-11-19T10:58:52;100078.25;;;10.40;89.53
8641;BME280;4358;42.100;25.222;2023-11-19T11:01:23;100087.50;;;10.47;88.83
8641;BME280;4358;42.100;25.222;2023-11-19T11:03:55;100069.03;;;10.46;89.15
8641;BME280;4358;42.100;25.222;2023-11-19T11:06:26;100090.81;;;10.51;88.76
8641;BME280;4358;42.100;25.222;2023-11-19T11:08:54;100079.41;;;10.63;88.84
8641;BME280;4358;42.100;25.222;2023-11-19T11:11:22;100072.19;;;10.65;88.19
8641;BME280;4358;42.100;25.222;2023-11-19T11:13:50;100069.81;;;10.75;88.86
8641;BME280;4358;42.100;25.222;2023-11-19T11:16:18;100066.91;;;10.65;87.90
8641;BME280;4358;42.100;25.222;2023-11-19T11:18:46;100080.56;;;10.59;88.50
8641;BME280;4358;42.100;25.222;2023-11-19T11:21:20;100076.88;;;10.61;88.48
8641;BME280;4358;42.100;25.222;2023-11-19T11:24:23;100080.16;;;10.65;88.03
8641;BME280;4358;42.100;25.222;2023-11-19T11:27:16;100068.50;;;10.68;88.09
8641;BME280;4358;42.100;25.222;2023-11-19T11:29:57;100052.78;;;10.65;87.78
8641;BME280;4358;42.100;25.222;2023-11-19T11:32:34;100059.47;;;10.70;87.58
8641;BME280;4358;42.100;25.222;2023-11-19T11:35:29;100054.22;;;10.56;87.99
8641;BME280;4358;42.100;25.222;2023-11-19T11:38:04;100071.81;;;10.71;88.18
8641;BME280;4358;42.100;25.222;2023-11-19T11:40:33;100066.13;;;10.77;87.78
8641;BME280;4358;42.100;25.222;2023-11-19T11:43:01;100071.59;;;10.74;87.36
8641;BME280;4358;42.100;25.222;2023-11-19T11:45:38;100040.16;;;10.68;87.91
8641;BME280;4358;42.100;25.222;2023-11-19T11:48:12;100024.06;;;10.84;87.79
8641;BME280;4358;42.100;25.222;2023-11-19T11:50:54;100014.28;;;10.72;86.98
8641;BME280;4358;42.100;25.222;2023-11-19T11:53:26;100027.41;;;10.73;86.71
8641;BME280;4358;42.100;25.222;2023-11-19T11:55:54;100001.09;;;10.70;87.47
8641;BME280;4358;42.100;25.222;2023-11-19T11:58:26;100005.06;;;10.77;88.08
8641;BME280;4358;42.100;25.222;2023-11-19T12:00:53;100020.44;;;10.72;86.94
8641;BME280;4358;42.100;25.222;2023-11-19T12:03:21;100015.16;;;10.85;87.29
8641;BME280;4358;42.100;25.222;2023-11-19T12:05:48;100018.09;;;10.80;87.09
8641;BME280;4358;42.100;25.222;2023-11-19T12:08:19;100027.56;;;10.84;87.00
8641;BME280;4358;42.100;25.222;2023-11-19T12:10:50;100031.09;;;10.85;87.43
8641;BME280;4358;42.100;25.222;2023-11-19T12:13:19;100019.03;;;10.93;87.20
8641;BME280;4358;42.100;25.222;2023-11-19T12:16:09;100003.69;;;10.84;87.28
8641;BME280;4358;42.100;25.222;2023-11-19T12:18:39;100025.28;;;10.92;86.57
8641;BME280;4358;42.100;25.222;2023-11-19T12:21:07;100000.28;;;10.82;87.32
8641;BME280;4358;42.100;25.222;2023-11-19T12:23:44;100017.31;;;10.92;86.18
8641;BME280;4358;42.100;25.222;2023-11-19T12:26:31;100013.66;;;10.81;86.73
8641;BME280;4358;42.100;25.222;2023-11-19T12:28:59;99926.88;;;10.42;85.71
8641;BME280;4358;42.100;25.222;2023-11-19T12:31:26;100005.75;;;10.67;85.40
8641;BME280;4358;42.100;25.222;2023-11-19T12:33:53;99986.41;;;10.65;85.98
8641;BME280;4358;42.100;25.222;2023-11-19T12:36:20;99980.63;;;10.72;86.26
8641;BME280;4358;42.100;25.222;2023-11-19T12:38:48;99985.16;;;10.70;85.67
8641;BME280;4358;42.100;25.222;2023-11-19T12:41:16;99978.53;;;10.63;85.45
8641;BME280;4358;42.100;25.222;2023-11-19T12:43:47;99995.94;;;10.54;85.08
8641;BME280;4358;42.100;25.222;2023-11-19T12:46:18;99968.38;;;10.57;85.72
8641;BME280;4358;42.100;25.222;2023-11-19T12:48:46;99969.47;;;10.67;86.32
8641;BME280;4358;42.100;25.222;2023-11-19T12:51:13;99962.97;;;10.71;85.89
8641;BME280;4358;42.100;25.222;2023-11-19T12:53:50;99958.94;;;10.78;85.67
8641;BME280;4358;42.100;25.222;2023-11-19T12:56:20;99969.16;;;10.84;85.17
8641;BME280;4358;42.100;25.222;2023-11-19T12:58:48;99965.63;;;10.71;85.18
8641;BME280;4358;42.100;25.222;2023-11-19T13:01:17;99971.56;;;10.62;85.47
8641;BME280;4358;42.100;25.222;2023-11-19T13:03:45;99963.16;;;10.55;86.18
8641;BME280;4358;42.100;25.222;2023-11-19T13:06:13;99970.72;;;10.61;85.75
8641;BME280;4358;42.100;25.222;2023-11-19T13:08:42;99994.59;;;10.61;85.20
8641;BME280;4358;42.100;25.222;2023-11-19T13:11:11;99973.53;;;10.58;84.94
8641;BME280;4358;42.100;25.222;2023-11-19T13:13:57;99969.63;;;10.64;84.83